createdAt,value
2017-09-14T00:01:17.359Z,15.43
2017-09-14T00:03:44.978Z,15.44
2017-09-14T00:06:12.868Z,15.41
2017-09-14T00:08:40.565Z,15.40
2017-09-14T00:11:08.298Z,15.34
2017-09-14T00:13:36.051Z,15.30
2017-09-14T00:16:04.087Z,15.28
2017-09-14T00:18:31.878Z,15.28
2017-09-14T00:20:59.507Z,15.30
2017-09-14T00:23:27.126Z,15.26
2017-09-14T00:25:54.732Z,15.22
2017-09-14T00:28:22.348Z,15.21
2017-09-14T00:30:50.122Z,15.21
2017-09-14T00:33:17.914Z,15.15
2017-09-14T00:35:45.594Z,15.15
2017-09-14T00:38:17.389Z,15.08
2017-09-14T00:40:44.974Z,15.04
2017-09-14T00:43:12.619Z,15.04
2017-09-14T00:45:40.226Z,15.06
2017-09-14T00:48:07.844Z,15.03
2017-09-14T00:50:35.431Z,14.99
2017-09-14T00:53:03.064Z,14.95
2017-09-14T00:55:30.643Z,14.96
2017-09-14T00:57:58.226Z,14.98
2017-09-14T01:00:26.007Z,14.96
2017-09-14T01:02:53.798Z,14.98
2017-09-14T01:05:21.778Z,14.96
2017-09-14T01:07:49.632Z,14.96
2017-09-14T01:10:17.309Z,14.94
2017-09-14T01:12:44.925Z,14.92
2017-09-14T01:15:12.824Z,14.91
2017-09-14T01:17:40.592Z,14.85
2017-09-14T01:20:08.761Z,14.82
2017-09-14T01:22:36.582Z,14.79
2017-09-14T01:25:04.454Z,14.81
2017-09-14T01:27:32.047Z,14.81
2017-09-14T01:29:59.716Z,14.80
2017-09-14T01:32:27.828Z,14.77
2017-09-14T01:34:55.707Z,14.77
2017-09-14T01:37:23.847Z,14.78
2017-09-14T01:39:51.645Z,14.77
2017-09-14T01:42:19.339Z,14.69
2017-09-14T01:44:47.220Z,14.63
2017-09-14T01:47:14.956Z,14.58
2017-09-14T01:49:43.098Z,14.56
2017-09-14T01:52:11.056Z,14.56
2017-09-14T01:54:38.896Z,14.56
2017-09-14T01:57:06.656Z,14.60
2017-09-14T01:59:34.523Z,14.57
2017-09-14T02:02:02.355Z,14.58
2017-09-14T02:04:30.137Z,14.54
2017-09-14T02:06:58.121Z,14.50
2017-09-14T02:09:25.869Z,14.52
2017-09-14T02:11:53.608Z,14.56
2017-09-14T02:14:21.366Z,14.55
2017-09-14T02:16:49.089Z,14.54
2017-09-14T02:19:16.838Z,14.52
2017-09-14T02:21:44.515Z,14.56
2017-09-14T02:24:12.386Z,14.52
2017-09-14T02:26:40.150Z,14.51
2017-09-14T02:29:07.898Z,14.43
2017-09-14T02:31:35.607Z,14.45
2017-09-14T02:34:03.330Z,14.49
2017-09-14T02:36:30.937Z,14.48
2017-09-14T02:38:58.562Z,14.44
2017-09-14T02:41:26.158Z,14.38
2017-09-14T02:43:53.803Z,14.37
2017-09-14T02:46:21.414Z,14.32
2017-09-14T02:48:49.006Z,14.33
2017-09-14T02:51:16.648Z,14.28
2017-09-14T02:53:44.311Z,14.20
2017-09-14T02:56:11.943Z,14.21
2017-09-14T02:58:39.535Z,14.13
2017-09-14T03:01:07.178Z,14.10
2017-09-14T03:03:34.783Z,14.13
2017-09-14T03:06:02.402Z,14.08
2017-09-14T03:08:30.007Z,14.10
2017-09-14T03:10:57.631Z,14.11
2017-09-14T03:13:25.230Z,14.14
2017-09-14T03:15:52.908Z,14.14
2017-09-14T03:18:20.494Z,14.11
2017-09-14T03:20:48.166Z,14.13
2017-09-14T03:23:15.771Z,14.16
2017-09-14T03:25:43.375Z,14.20
2017-09-14T03:28:10.982Z,14.18
2017-09-14T03:30:38.587Z,14.17
2017-09-14T03:33:06.203Z,14.20
2017-09-14T03:35:33.789Z,14.17
2017-09-14T03:38:01.430Z,14.13
2017-09-14T03:40:29.015Z,14.14
2017-09-14T03:42:56.626Z,14.15
2017-09-14T03:45:24.210Z,14.15
2017-09-14T03:47:51.847Z,14.15
2017-09-14T03:50:19.426Z,14.19
2017-09-14T03:52:47.044Z,14.25
2017-09-14T03:55:14.632Z,14.29
2017-09-14T03:57:42.286Z,14.27
2017-09-14T04:00:09.882Z,14.27
2017-09-14T04:02:37.495Z,14.29
2017-09-14T04:05:05.072Z,14.32
2017-09-14T04:07:32.695Z,14.32
2017-09-14T04:10:00.272Z,14.34
2017-09-14T04:12:27.896Z,14.35
2017-09-14T04:14:55.486Z,14.35
2017-09-14T04:17:23.267Z,14.36
2017-09-14T04:19:51.238Z,14.32
2017-09-14T04:22:19.131Z,14.29
2017-09-14T04:24:46.856Z,14.30
2017-09-14T04:27:14.700Z,14.29
2017-09-14T04:29:42.282Z,14.27
2017-09-14T04:32:09.993Z,14.25
2017-09-14T04:34:37.647Z,14.20
2017-09-14T04:37:05.466Z,14.19
2017-09-14T04:39:33.195Z,14.22
2017-09-14T04:42:00.951Z,14.20
2017-09-14T04:44:28.634Z,14.24
2017-09-14T04:46:56.423Z,14.23
2017-09-14T04:49:24.174Z,14.18
2017-09-14T04:51:51.989Z,14.15
2017-09-14T04:54:19.735Z,14.14
2017-09-14T04:56:47.573Z,14.18
2017-09-14T04:59:15.327Z,14.18
2017-09-14T05:01:43.137Z,14.17
2017-09-14T05:04:10.945Z,14.17
2017-09-14T05:06:38.768Z,14.13
2017-09-14T05:09:06.559Z,14.14
2017-09-14T05:11:34.344Z,14.14
2017-09-14T05:14:05.037Z,14.08
2017-09-14T05:16:32.778Z,14.10
2017-09-14T05:19:00.605Z,14.09
2017-09-14T05:21:28.235Z,14.09
2017-09-14T05:23:55.819Z,14.11
2017-09-14T05:26:23.426Z,14.11
2017-09-14T05:28:51.047Z,14.11
2017-09-14T05:31:18.619Z,14.11
2017-09-14T05:33:46.328Z,14.19
2017-09-14T05:36:13.943Z,14.27
2017-09-14T05:38:41.562Z,14.31
2017-09-14T05:41:09.215Z,14.40
2017-09-14T05:43:36.798Z,14.43
2017-09-14T05:46:04.402Z,14.41
2017-09-14T05:48:32.014Z,14.47
2017-09-14T05:50:59.623Z,14.42
2017-09-14T05:53:27.252Z,14.30
2017-09-14T05:55:54.830Z,14.30
2017-09-14T05:58:22.516Z,14.27
2017-09-14T06:00:50.102Z,14.23
2017-09-14T06:03:17.726Z,14.21
2017-09-14T06:05:45.322Z,14.22
2017-09-14T06:08:12.975Z,14.19
2017-09-14T06:10:40.585Z,14.14
2017-09-14T06:13:08.287Z,14.10
2017-09-14T06:15:35.911Z,14.05
2017-09-14T06:18:03.523Z,14.07
2017-09-14T06:20:31.523Z,14.07
2017-09-14T06:22:59.545Z,14.06
2017-09-14T06:25:28.640Z,14.22
2017-09-14T06:27:57.118Z,14.63
2017-09-14T06:30:27.635Z,14.52
2017-09-14T06:32:55.227Z,14.42
2017-09-14T06:35:22.891Z,14.35
2017-09-14T06:37:50.503Z,14.24
2017-09-14T06:40:18.122Z,14.17
2017-09-14T06:42:45.723Z,14.07
2017-09-14T06:45:13.338Z,14.08
2017-09-14T06:47:40.927Z,14.05
2017-09-14T06:50:10.145Z,14.08
2017-09-14T06:52:37.722Z,14.12
2017-09-14T06:55:05.368Z,14.06
2017-09-14T06:57:32.954Z,14.03
2017-09-14T07:00:00.593Z,14.02
2017-09-14T07:02:29.019Z,13.94
2017-09-14T07:05:06.174Z,13.89
2017-09-14T07:07:36.123Z,13.84
2017-09-14T07:10:06.514Z,13.81
2017-09-14T07:12:40.172Z,13.80
2017-09-14T07:15:09.453Z,13.76
2017-09-14T07:17:45.369Z,13.76
2017-09-14T07:22:51.698Z,13.78
2017-09-14T07:25:19.720Z,13.80
2017-09-14T07:27:56.496Z,13.81
2017-09-14T07:30:31.059Z,13.91
2017-09-14T07:32:58.935Z,13.95
2017-09-14T07:35:39.714Z,13.92
2017-09-14T07:38:07.576Z,13.93
2017-09-14T07:40:35.546Z,13.95
2017-09-14T07:43:03.412Z,13.90
2017-09-14T07:45:31.426Z,13.84
2017-09-14T07:47:59.558Z,13.87
2017-09-14T07:50:27.580Z,13.88
2017-09-14T07:52:56.011Z,13.95
2017-09-14T07:55:24.811Z,14.04
2017-09-14T07:57:52.532Z,14.07
2017-09-14T08:00:21.390Z,14.05
2017-09-14T08:02:49.148Z,14.13
2017-09-14T08:05:16.837Z,14.14
2017-09-14T08:07:44.579Z,14.21
2017-09-14T08:10:14.261Z,14.27
2017-09-14T08:12:42.047Z,14.32
2017-09-14T08:15:09.913Z,14.38
2017-09-14T08:17:37.660Z,14.37
2017-09-14T08:20:05.756Z,14.43
2017-09-14T08:22:33.660Z,14.45
2017-09-14T08:25:01.572Z,14.50
2017-09-14T08:27:29.713Z,14.48
2017-09-14T08:29:57.391Z,14.43
2017-09-14T08:32:25.175Z,14.48
2017-09-14T08:34:53.261Z,14.53
2017-09-14T08:37:21.593Z,14.53
2017-09-14T08:39:49.543Z,14.61
2017-09-14T08:42:17.261Z,14.65
2017-09-14T08:44:45.334Z,14.69
2017-09-14T08:47:13.509Z,14.73
2017-09-14T08:49:41.674Z,14.69
2017-09-14T08:52:09.928Z,14.69
2017-09-14T08:54:37.815Z,14.60
2017-09-14T08:57:06.007Z,14.68
2017-09-14T08:59:34.036Z,14.69
2017-09-14T09:02:01.651Z,14.63
2017-09-14T09:04:29.232Z,14.75
2017-09-14T09:06:56.860Z,14.84
2017-09-14T09:09:24.512Z,14.87
2017-09-14T09:11:52.118Z,14.90
2017-09-14T09:14:19.715Z,14.82
2017-09-14T09:16:47.342Z,14.81
2017-09-14T09:19:14.931Z,14.67
2017-09-14T09:21:42.861Z,14.62
2017-09-14T09:24:13.459Z,14.67
2017-09-14T09:26:41.420Z,14.69
2017-09-14T09:29:09.190Z,14.68
2017-09-14T09:31:36.978Z,14.55
2017-09-14T09:34:04.778Z,14.55
2017-09-14T09:36:32.881Z,14.63
2017-09-14T09:39:00.861Z,14.77
2017-09-14T09:41:28.560Z,14.73
2017-09-14T09:43:56.360Z,14.76
2017-09-14T09:46:24.083Z,14.90
2017-09-14T09:48:51.804Z,14.90
2017-09-14T09:51:19.680Z,15.00
2017-09-14T09:53:47.547Z,14.96
2017-09-14T09:56:18.728Z,14.85
2017-09-14T09:58:46.659Z,14.74
2017-09-14T10:01:14.362Z,14.69
2017-09-14T10:03:42.393Z,14.78
2017-09-14T10:06:10.140Z,14.76
2017-09-14T10:08:37.870Z,14.77
2017-09-14T10:11:05.519Z,14.81
2017-09-14T10:13:33.239Z,14.92
2017-09-14T10:16:01.230Z,14.96
2017-09-14T10:18:29.182Z,15.00
2017-09-14T10:20:57.047Z,15.08
2017-09-14T10:23:24.947Z,15.08
2017-09-14T10:25:52.884Z,15.03
2017-09-14T10:28:20.810Z,15.04
2017-09-14T10:30:48.761Z,15.06
2017-09-14T10:33:17.363Z,15.09
2017-09-14T10:35:45.066Z,15.09
2017-09-14T10:38:12.896Z,15.01
2017-09-14T10:40:40.747Z,14.98
2017-09-14T10:43:08.587Z,14.91
2017-09-14T10:45:36.327Z,14.84
2017-09-14T10:48:04.160Z,14.70
2017-09-14T10:50:32.158Z,14.66
2017-09-14T10:52:59.831Z,14.38
2017-09-14T10:55:27.522Z,14.14
2017-09-14T10:57:55.308Z,14.14
2017-09-14T11:00:22.947Z,13.98
2017-09-14T11:02:50.711Z,13.87
2017-09-14T11:05:18.495Z,13.87
2017-09-14T11:07:46.323Z,13.87
2017-09-14T11:10:14.011Z,13.84
2017-09-14T11:12:41.590Z,14.02
2017-09-14T11:15:09.227Z,14.31
2017-09-14T11:17:36.886Z,14.96
2017-09-14T11:20:04.522Z,15.50
2017-09-14T11:22:32.659Z,15.73
2017-09-14T11:25:00.284Z,16.17
2017-09-14T11:27:27.927Z,16.18
2017-09-14T11:29:55.575Z,15.83
2017-09-14T11:32:23.825Z,15.34
2017-09-14T11:34:51.862Z,15.20
2017-09-14T11:37:19.988Z,15.14
2017-09-14T11:39:48.467Z,15.08
2017-09-14T11:42:16.933Z,15.04
2017-09-14T11:44:44.915Z,15.64
2017-09-14T11:47:12.826Z,16.15
2017-09-14T11:49:40.589Z,16.63
2017-09-14T11:52:08.248Z,17.17
2017-09-14T11:54:35.896Z,17.46
2017-09-14T11:57:03.497Z,17.15
2017-09-14T11:59:31.119Z,17.33
2017-09-14T12:01:58.727Z,17.50
2017-09-14T12:04:26.412Z,16.88
2017-09-14T12:06:54.039Z,16.42
2017-09-14T12:09:21.712Z,16.45
2017-09-14T12:11:49.331Z,16.29
2017-09-14T12:14:16.940Z,16.11
2017-09-14T12:16:44.556Z,16.19
2017-09-14T12:19:12.161Z,16.43
2017-09-14T12:21:39.786Z,16.35
2017-09-14T12:24:07.431Z,16.08
2017-09-14T12:26:35.002Z,15.35
2017-09-14T12:29:02.600Z,14.70
2017-09-14T12:31:30.230Z,14.32
2017-09-14T12:33:57.838Z,14.11
2017-09-14T12:36:25.455Z,13.94
2017-09-14T12:38:53.054Z,13.88
2017-09-14T12:41:20.666Z,13.89
2017-09-14T12:43:48.315Z,13.84
2017-09-14T12:46:16.091Z,13.86
2017-09-14T12:48:43.758Z,14.12
2017-09-14T12:51:11.418Z,14.86
2017-09-14T12:53:39.039Z,15.59
2017-09-14T12:56:06.657Z,16.03
2017-09-14T12:58:34.259Z,16.49
2017-09-14T13:01:01.901Z,16.82
2017-09-14T13:03:29.531Z,16.99
2017-09-14T13:05:57.183Z,17.09
2017-09-14T13:08:24.774Z,17.03
2017-09-14T13:10:52.402Z,17.03
2017-09-14T13:13:19.998Z,16.74
2017-09-14T13:15:47.622Z,16.48
2017-09-14T13:18:15.219Z,16.50
2017-09-14T13:20:42.827Z,16.26
2017-09-14T13:23:10.420Z,16.32
2017-09-14T13:25:38.044Z,16.30
2017-09-14T13:28:05.652Z,16.10
2017-09-14T13:30:33.259Z,15.95
2017-09-14T13:33:00.839Z,15.83
2017-09-14T13:35:28.472Z,16.04
2017-09-14T13:37:56.055Z,15.98
2017-09-14T13:40:23.785Z,15.89
2017-09-14T13:42:51.379Z,15.78
2017-09-14T13:45:18.993Z,15.63
2017-09-14T13:47:46.583Z,15.56
2017-09-14T13:50:14.223Z,15.55
2017-09-14T13:52:42.159Z,15.43
2017-09-14T13:55:09.976Z,15.33
2017-09-14T13:57:38.334Z,15.31
2017-09-14T14:00:06.488Z,15.24
2017-09-14T14:02:34.098Z,15.15
2017-09-14T14:05:01.734Z,15.13
2017-09-14T14:07:29.352Z,15.21
2017-09-14T14:09:57.256Z,15.14
2017-09-14T14:12:24.869Z,15.08
2017-09-14T14:14:52.510Z,15.04
2017-09-14T14:17:20.140Z,15.00
2017-09-14T14:19:47.776Z,14.82
2017-09-14T14:22:15.399Z,14.71
2017-09-14T14:24:42.992Z,14.64
2017-09-14T14:27:10.614Z,14.57
2017-09-14T14:29:38.262Z,14.59
2017-09-14T14:32:05.910Z,14.59
2017-09-14T14:34:33.523Z,14.54
2017-09-14T14:37:01.148Z,14.49
2017-09-14T14:39:28.767Z,14.45
2017-09-14T14:41:56.504Z,14.35
2017-09-14T14:44:24.195Z,14.24
2017-09-14T14:46:51.912Z,14.13
2017-09-14T14:49:19.565Z,14.05
2017-09-14T14:51:47.257Z,14.03
2017-09-14T14:54:14.888Z,13.98
2017-09-14T14:56:42.701Z,14.01
2017-09-14T14:59:10.319Z,14.00
2017-09-14T15:01:37.977Z,13.88
2017-09-14T15:04:05.623Z,13.81
2017-09-14T15:06:33.279Z,13.71
2017-09-14T15:09:00.964Z,13.64
2017-09-14T15:11:28.564Z,13.58
2017-09-14T15:13:56.182Z,13.50
2017-09-14T15:16:23.786Z,13.36
2017-09-14T15:18:51.426Z,13.30
2017-09-14T15:21:19.060Z,13.16
2017-09-14T15:23:46.682Z,13.08
2017-09-14T15:26:14.348Z,12.96
2017-09-14T15:28:41.964Z,12.78
2017-09-14T15:31:09.587Z,12.65
2017-09-14T15:33:37.256Z,12.64
2017-09-14T15:36:04.866Z,12.64
2017-09-14T15:38:38.143Z,12.58
2017-09-14T15:41:11.183Z,12.56
2017-09-14T15:43:44.294Z,12.42
2017-09-14T15:46:11.890Z,12.23
2017-09-14T15:48:45.158Z,12.15
2017-09-14T15:51:18.319Z,12.18
2017-09-14T15:53:45.975Z,12.08
2017-09-14T15:56:13.542Z,12.02
2017-09-14T15:58:41.158Z,11.97
2017-09-14T16:01:08.780Z,11.98
2017-09-14T16:03:36.363Z,12.02
2017-09-14T16:06:03.994Z,12.03
2017-09-14T16:08:31.591Z,12.02
2017-09-14T16:10:59.235Z,11.99
2017-09-14T16:13:26.834Z,12.00
2017-09-14T16:15:54.466Z,12.01
2017-09-14T16:18:22.059Z,11.99
2017-09-14T16:20:49.697Z,12.02
2017-09-14T16:23:17.340Z,12.01
2017-09-14T16:25:45.007Z,11.99
2017-09-14T16:28:12.651Z,12.01
2017-09-14T16:30:40.262Z,11.99
2017-09-14T16:33:07.864Z,11.97
2017-09-14T16:35:35.541Z,11.94
2017-09-14T16:38:03.147Z,12.04
2017-09-14T16:40:30.799Z,12.06
2017-09-14T16:42:58.395Z,12.09
2017-09-14T16:45:26.012Z,12.11
2017-09-14T16:47:53.620Z,12.10
2017-09-14T16:50:21.242Z,12.09
2017-09-14T16:52:48.857Z,12.13
2017-09-14T16:55:16.531Z,12.16
2017-09-14T16:57:44.156Z,12.19
2017-09-14T17:00:11.911Z,12.17
2017-09-14T17:02:39.519Z,12.18
2017-09-14T17:05:07.320Z,12.20
2017-09-14T17:07:34.949Z,12.16
2017-09-14T17:10:02.544Z,12.16
2017-09-14T17:12:30.219Z,12.19
2017-09-14T17:14:57.826Z,12.20
2017-09-14T17:17:25.446Z,12.23
2017-09-14T17:19:53.049Z,12.24
2017-09-14T17:22:20.798Z,12.26
2017-09-14T17:24:48.425Z,12.25
2017-09-14T17:27:16.112Z,12.27
2017-09-14T17:29:43.800Z,12.27
2017-09-14T17:32:11.664Z,12.28
2017-09-14T17:34:39.287Z,12.28
2017-09-14T17:37:06.897Z,12.31
2017-09-14T17:39:34.520Z,12.34
2017-09-14T17:42:02.140Z,12.38
2017-09-14T17:44:29.780Z,12.38
2017-09-14T17:46:57.422Z,12.41
2017-09-14T17:49:25.022Z,12.42
2017-09-14T17:51:52.658Z,12.42
2017-09-14T17:54:20.263Z,12.43
2017-09-14T17:56:47.903Z,12.44
2017-09-14T17:59:15.528Z,12.44
2017-09-14T18:01:43.204Z,12.45
2017-09-14T18:04:10.813Z,12.45
2017-09-14T18:06:38.427Z,12.47
2017-09-14T18:09:06.048Z,12.47
2017-09-14T18:11:33.668Z,12.49
2017-09-14T18:14:01.322Z,12.45
2017-09-14T18:16:28.938Z,12.48
2017-09-14T18:18:56.575Z,12.46
2017-09-14T18:21:24.196Z,12.48
2017-09-14T18:23:51.887Z,12.47
2017-09-14T18:26:19.556Z,12.48
2017-09-14T18:28:47.159Z,12.48
2017-09-14T18:31:14.957Z,12.51
2017-09-14T18:33:42.547Z,12.51
2017-09-14T18:36:10.192Z,12.53
2017-09-14T18:38:37.810Z,12.54
2017-09-14T18:41:05.444Z,12.56
2017-09-14T18:43:33.054Z,12.56
2017-09-14T18:46:00.695Z,12.56
2017-09-14T18:48:28.313Z,12.55
2017-09-14T18:50:55.967Z,12.56
2017-09-14T18:53:23.572Z,12.59
2017-09-14T18:55:51.175Z,12.60
2017-09-14T18:58:18.831Z,12.58
2017-09-14T19:00:46.428Z,12.60
2017-09-14T19:03:14.066Z,12.65
2017-09-14T19:05:41.757Z,12.66
2017-09-14T19:08:09.369Z,12.66
2017-09-14T19:10:36.967Z,12.65
2017-09-14T19:13:04.610Z,12.65
2017-09-14T19:15:32.211Z,12.65
2017-09-14T19:17:59.891Z,12.67
2017-09-14T19:20:27.601Z,12.69
2017-09-14T19:22:55.249Z,12.69
2017-09-14T19:25:22.874Z,12.70
2017-09-14T19:27:50.535Z,12.70
2017-09-14T19:30:18.202Z,12.71
2017-09-14T19:32:45.840Z,12.73
2017-09-14T19:35:13.458Z,12.72
2017-09-14T19:37:41.092Z,12.75
2017-09-14T19:40:08.714Z,12.74
2017-09-14T19:42:36.348Z,12.73
2017-09-14T19:45:03.988Z,12.72
2017-09-14T19:47:31.646Z,12.73
2017-09-14T19:49:59.312Z,12.73
2017-09-14T19:52:26.913Z,12.75
2017-09-14T19:54:54.562Z,12.76
2017-09-14T19:57:22.177Z,12.78
2017-09-14T19:59:49.818Z,12.79
2017-09-14T20:02:17.437Z,12.79
2017-09-14T20:04:45.056Z,12.79
2017-09-14T20:07:12.657Z,12.81
2017-09-14T20:09:40.274Z,12.82
2017-09-14T20:12:07.924Z,12.80
2017-09-14T20:14:35.576Z,12.81
2017-09-14T20:17:03.214Z,12.80
2017-09-14T20:19:30.861Z,12.82
2017-09-14T20:21:58.496Z,12.83
2017-09-14T20:24:26.130Z,12.94
2017-09-14T20:26:53.792Z,12.93
2017-09-14T20:29:21.437Z,12.90
2017-09-14T20:31:49.034Z,12.90
2017-09-14T20:34:16.815Z,12.92
2017-09-14T20:36:44.413Z,12.93
2017-09-14T20:39:12.086Z,12.92
2017-09-14T20:41:39.711Z,12.91
2017-09-14T20:44:07.316Z,12.87
2017-09-14T20:46:34.946Z,12.87
2017-09-14T20:49:02.552Z,12.82
2017-09-14T20:51:30.194Z,12.82
2017-09-14T20:53:57.797Z,12.80
2017-09-14T20:56:25.422Z,12.79
2017-09-14T20:58:53.016Z,12.76
2017-09-14T21:01:20.660Z,12.77
2017-09-14T21:03:48.262Z,12.79
2017-09-14T21:06:15.886Z,12.81
2017-09-14T21:08:43.493Z,12.83
2017-09-14T21:11:11.143Z,12.83
2017-09-14T21:13:38.747Z,12.82
2017-09-14T21:16:06.507Z,12.83
2017-09-14T21:18:34.139Z,12.83
2017-09-14T21:21:01.788Z,12.84
2017-09-14T21:23:29.406Z,12.83
2017-09-14T21:25:57.061Z,12.86
2017-09-14T21:28:24.784Z,12.87
2017-09-14T21:30:52.405Z,12.86
2017-09-14T21:33:20.004Z,12.86
2017-09-14T21:35:47.656Z,12.86
2017-09-14T21:38:15.276Z,12.88
2017-09-14T21:40:42.970Z,12.88
2017-09-14T21:43:10.580Z,12.86
2017-09-14T21:45:38.195Z,12.85
2017-09-14T21:48:05.855Z,12.84
2017-09-14T21:50:33.483Z,12.82
2017-09-14T21:53:01.083Z,12.80
2017-09-14T21:55:28.729Z,12.78
2017-09-14T21:57:56.341Z,12.77
2017-09-14T22:00:23.948Z,12.76
2017-09-14T22:02:51.589Z,12.74
2017-09-14T22:05:19.303Z,12.75
2017-09-14T22:07:46.926Z,12.76
2017-09-14T22:10:14.589Z,12.73
2017-09-14T22:12:42.194Z,12.72
2017-09-14T22:15:09.788Z,12.71
2017-09-14T22:17:37.419Z,12.73
2017-09-14T22:20:05.047Z,12.73
2017-09-14T22:22:32.682Z,12.73
2017-09-14T22:25:00.458Z,12.72
2017-09-14T22:27:28.062Z,12.76
2017-09-14T22:29:55.663Z,12.75
2017-09-14T22:32:23.308Z,12.74
2017-09-14T22:34:50.914Z,12.73
2017-09-14T22:37:18.555Z,12.71
2017-09-14T22:39:46.268Z,12.74
2017-09-14T22:42:13.892Z,12.71
2017-09-14T22:44:41.479Z,12.73
2017-09-14T22:47:09.194Z,12.76
2017-09-14T22:49:36.799Z,12.76
2017-09-14T22:52:04.424Z,12.76
2017-09-14T22:54:32.033Z,12.73
2017-09-14T22:56:59.771Z,12.70
2017-09-14T22:59:27.386Z,12.69
2017-09-14T23:01:55.006Z,12.68
2017-09-14T23:04:22.603Z,12.69
2017-09-14T23:06:50.222Z,12.69
2017-09-14T23:09:17.815Z,12.67
2017-09-14T23:11:45.435Z,12.69
2017-09-14T23:14:13.133Z,12.65
2017-09-14T23:16:40.858Z,12.63
2017-09-14T23:19:08.469Z,12.63
2017-09-14T23:21:36.107Z,12.64
2017-09-14T23:24:03.694Z,12.66
2017-09-14T23:26:31.311Z,12.63
2017-09-14T23:28:58.903Z,12.61
2017-09-14T23:31:26.527Z,12.62
2017-09-14T23:33:54.226Z,12.60
2017-09-14T23:36:21.858Z,12.55
2017-09-14T23:38:49.621Z,12.59
2017-09-14T23:41:17.243Z,12.59
2017-09-14T23:43:44.847Z,12.59
2017-09-14T23:46:12.500Z,12.59
2017-09-14T23:48:40.094Z,12.56
2017-09-14T23:51:07.718Z,12.59
2017-09-14T23:53:35.326Z,12.61
2017-09-14T23:56:03.109Z,12.60
2017-09-14T23:58:30.719Z,12.60
